sensor_id;sensor_type;location;lat;lon;timestamp;P1;durP1;ratioP1;P2;durP2;ratioP2
13933;SDS011;7039;52.168;9.866;2023-07-24T00:01:18;1.70;;;1.60;;
13933;SDS011;7039;52.168;9.866;2023-07-24T00:03:45;3.17;;;2.13;;
13933;SDS011;7039;52.168;9.866;2023-07-24T00:06:11;1.70;;;1.40;;
13933;SDS011;7039;52.168;9.866;2023-07-24T00:08:38;2.43;;;1.70;;
13933;SDS011;7039;52.168;9.866;2023-07-24T00:11:06;1.40;;;1.30;;
13933;SDS011;7039;52.168;9.866;2023-07-24T00:13:33;2.37;;;1.70;;
13933;SDS011;7039;52.168;9.866;2023-07-24T00:15:59;1.80;;;1.70;;
13933;SDS011;7039;52.168;9.866;2023-07-24T00:18:27;1.63;;;1.50;;
13933;SDS011;7039;52.168;9.866;2023-07-24T00:20:54;1.70;;;1.60;;
13933;SDS011;7039;52.168;9.866;2023-07-24T00:23:20;3.73;;;2.07;;
13933;SDS011;7039;52.168;9.866;2023-07-24T00:25:47;1.63;;;1.40;;
13933;SDS011;7039;52.168;9.866;2023-07-24T00:28:13;1.70;;;1.50;;
13933;SDS011;7039;52.168;9.866;2023-07-24T00:30:39;1.50;;;1.40;;
13933;SDS011;7039;52.168;9.866;2023-07-24T00:33:06;3.40;;;2.13;;
13933;SDS011;7039;52.168;9.866;2023-07-24T00:35:34;2.70;;;1.53;;
13933;SDS011;7039;52.168;9.866;2023-07-24T00:38:00;2.53;;;1.70;;
13933;SDS011;7039;52.168;9.866;2023-07-24T00:40:27;2.33;;;1.93;;
13933;SDS011;7039;52.168;9.866;2023-07-24T00:42:53;2.20;;;2.00;;
13933;SDS011;7039;52.168;9.866;2023-07-24T00:45:19;2.17;;;1.80;;
13933;SDS011;7039;52.168;9.866;2023-07-24T00:47:47;2.07;;;1.87;;
13933;SDS011;7039;52.168;9.866;2023-07-24T00:50:14;3.47;;;1.73;;
13933;SDS011;7039;52.168;9.866;2023-07-24T00:52:42;2.70;;;1.80;;
13933;SDS011;7039;52.168;9.866;2023-07-24T00:55:09;2.10;;;1.90;;
13933;SDS011;7039;52.168;9.866;2023-07-24T00:57:38;3.07;;;2.10;;
13933;SDS011;7039;52.168;9.866;2023-07-24T01:00:06;2.30;;;1.93;;
13933;SDS011;7039;52.168;9.866;2023-07-24T01:02:33;4.60;;;1.83;;
13933;SDS011;7039;52.168;9.866;2023-07-24T01:05:01;1.97;;;1.73;;
13933;SDS011;7039;52.168;9.866;2023-07-24T01:07:27;2.10;;;1.90;;
13933;SDS011;7039;52.168;9.866;2023-07-24T01:09:56;2.00;;;1.80;;
13933;SDS011;7039;52.168;9.866;2023-07-24T01:12:22;2.40;;;2.20;;
13933;SDS011;7039;52.168;9.866;2023-07-24T01:14:58;3.43;;;2.07;;
13933;SDS011;7039;52.168;9.866;2023-07-24T01:17:29;3.67;;;2.50;;
13933;SDS011;7039;52.168;9.866;2023-07-24T01:19:59;4.13;;;1.83;;
13933;SDS011;7039;52.168;9.866;2023-07-24T01:22:32;2.00;;;1.90;;
13933;SDS011;7039;52.168;9.866;2023-07-24T01:25:09;2.40;;;2.20;;
13933;SDS011;7039;52.168;9.866;2023-07-24T01:27:44;5.03;;;2.23;;
13933;SDS011;7039;52.168;9.866;2023-07-24T01:30:12;3.00;;;2.23;;
13933;SDS011;7039;52.168;9.866;2023-07-24T01:32:39;3.97;;;2.27;;
13933;SDS011;7039;52.168;9.866;2023-07-24T01:35:06;4.33;;;2.27;;
13933;SDS011;7039;52.168;9.866;2023-07-24T01:37:33;2.17;;;2.00;;
13933;SDS011;7039;52.168;9.866;2023-07-24T01:40:00;2.57;;;2.37;;
13933;SDS011;7039;52.168;9.866;2023-07-24T01:42:28;3.63;;;2.93;;
13933;SDS011;7039;52.168;9.866;2023-07-24T01:44:56;2.83;;;2.20;;
13933;SDS011;7039;52.168;9.866;2023-07-24T01:47:23;3.87;;;2.40;;
13933;SDS011;7039;52.168;9.866;2023-07-24T01:49:49;3.17;;;2.40;;
13933;SDS011;7039;52.168;9.866;2023-07-24T01:52:16;3.13;;;2.10;;
13933;SDS011;7039;52.168;9.866;2023-07-24T01:54:42;4.63;;;2.23;;
13933;SDS011;7039;52.168;9.866;2023-07-24T01:57:08;2.90;;;2.20;;
13933;SDS011;7039;52.168;9.866;2023-07-24T01:59:35;2.33;;;2.13;;
13933;SDS011;7039;52.168;9.866;2023-07-24T02:02:03;2.20;;;2.00;;
13933;SDS011;7039;52.168;9.866;2023-07-24T02:04:29;2.30;;;2.10;;
13933;SDS011;7039;52.168;9.866;2023-07-24T02:06:56;3.70;;;2.60;;
13933;SDS011;7039;52.168;9.866;2023-07-24T02:09:22;3.20;;;2.40;;
13933;SDS011;7039;52.168;9.866;2023-07-24T02:11:49;2.40;;;1.90;;
13933;SDS011;7039;52.168;9.866;2023-07-24T02:14:17;2.83;;;2.10;;
13933;SDS011;7039;52.168;9.866;2023-07-24T02:16:45;2.17;;;1.97;;
13933;SDS011;7039;52.168;9.866;2023-07-24T02:19:13;2.37;;;2.07;;
13933;SDS011;7039;52.168;9.866;2023-07-24T02:21:39;2.20;;;2.00;;
13933;SDS011;7039;52.168;9.866;2023-07-24T02:24:06;2.27;;;1.87;;
13933;SDS011;7039;52.168;9.866;2023-07-24T02:26:33;4.30;;;2.17;;
13933;SDS011;7039;52.168;9.866;2023-07-24T02:28:59;2.57;;;2.10;;
13933;SDS011;7039;52.168;9.866;2023-07-24T02:31:25;3.57;;;2.27;;
13933;SDS011;7039;52.168;9.866;2023-07-24T02:33:52;3.07;;;2.23;;
13933;SDS011;7039;52.168;9.866;2023-07-24T02:36:20;3.70;;;2.17;;
13933;SDS011;7039;52.168;9.866;2023-07-24T02:38:46;2.37;;;2.17;;
13933;SDS011;7039;52.168;9.866;2023-07-24T02:41:13;2.00;;;1.80;;
13933;SDS011;7039;52.168;9.866;2023-07-24T02:43:39;4.27;;;2.10;;
13933;SDS011;7039;52.168;9.866;2023-07-24T02:46:05;2.50;;;2.17;;
13933;SDS011;7039;52.168;9.866;2023-07-24T02:48:32;3.73;;;2.20;;
13933;SDS011;7039;52.168;9.866;2023-07-24T02:50:58;2.30;;;2.10;;
13933;SDS011;7039;52.168;9.866;2023-07-24T02:53:26;4.53;;;2.10;;
13933;SDS011;7039;52.168;9.866;2023-07-24T02:55:52;2.90;;;2.00;;
13933;SDS011;7039;52.168;9.866;2023-07-24T02:58:19;2.20;;;2.00;;
13933;SDS011;7039;52.168;9.866;2023-07-24T03:00:45;3.80;;;2.13;;
13933;SDS011;7039;52.168;9.866;2023-07-24T03:03:12;2.53;;;2.30;;
13933;SDS011;7039;52.168;9.866;2023-07-24T03:05:38;5.33;;;2.50;;
13933;SDS011;7039;52.168;9.866;2023-07-24T03:08:05;2.37;;;2.17;;
13933;SDS011;7039;52.168;9.866;2023-07-24T03:10:32;2.90;;;2.20;;
13933;SDS011;7039;52.168;9.866;2023-07-24T03:12:59;3.03;;;1.87;;
13933;SDS011;7039;52.168;9.866;2023-07-24T03:15:25;2.73;;;1.90;;
13933;SDS011;7039;52.168;9.866;2023-07-24T03:17:52;3.33;;;2.03;;
13933;SDS011;7039;52.168;9.866;2023-07-24T03:20:19;3.97;;;2.50;;
13933;SDS011;7039;52.168;9.866;2023-07-24T03:22:46;3.10;;;2.00;;
13933;SDS011;7039;52.168;9.866;2023-07-24T03:25:12;2.77;;;2.30;;
13933;SDS011;7039;52.168;9.866;2023-07-24T03:27:41;2.60;;;2.30;;
13933;SDS011;7039;52.168;9.866;2023-07-24T03:30:07;3.10;;;2.20;;
13933;SDS011;7039;52.168;9.866;2023-07-24T03:32:35;3.07;;;2.77;;
13933;SDS011;7039;52.168;9.866;2023-07-24T03:35:02;2.30;;;2.10;;
13933;SDS011;7039;52.168;9.866;2023-07-24T03:37:28;3.47;;;2.33;;
13933;SDS011;7039;52.168;9.866;2023-07-24T03:39:55;2.70;;;2.10;;
13933;SDS011;7039;52.168;9.866;2023-07-24T03:42:25;2.67;;;2.00;;
13933;SDS011;7039;52.168;9.866;2023-07-24T03:44:54;4.00;;;2.10;;
13933;SDS011;7039;52.168;9.866;2023-07-24T03:47:20;2.43;;;1.90;;
13933;SDS011;7039;52.168;9.866;2023-07-24T03:49:47;3.13;;;2.40;;
13933;SDS011;7039;52.168;9.866;2023-07-24T03:52:13;5.40;;;2.53;;
13933;SDS011;7039;52.168;9.866;2023-07-24T03:54:40;2.37;;;2.17;;
13933;SDS011;7039;52.168;9.866;2023-07-24T03:57:06;4.93;;;1.93;;
13933;SDS011;7039;52.168;9.866;2023-07-24T03:59:33;4.23;;;2.47;;
13933;SDS011;7039;52.168;9.866;2023-07-24T04:02:01;2.37;;;2.17;;
13933;SDS011;7039;52.168;9.866;2023-07-24T04:04:27;3.00;;;2.13;;
13933;SDS011;7039;52.168;9.866;2023-07-24T04:06:54;4.03;;;2.37;;
13933;SDS011;7039;52.168;9.866;2023-07-24T04:09:20;3.93;;;2.10;;
13933;SDS011;7039;52.168;9.866;2023-07-24T04:11:47;2.93;;;2.63;;
13933;SDS011;7039;52.168;9.866;2023-07-24T04:14:13;2.40;;;2.13;;
13933;SDS011;7039;52.168;9.866;2023-07-24T04:16:39;2.13;;;1.93;;
13933;SDS011;7039;52.168;9.866;2023-07-24T04:19:07;5.33;;;2.00;;
13933;SDS011;7039;52.168;9.866;2023-07-24T04:21:34;3.00;;;2.10;;
13933;SDS011;7039;52.168;9.866;2023-07-24T04:24:00;2.23;;;1.90;;
13933;SDS011;7039;52.168;9.866;2023-07-24T04:26:27;2.73;;;2.13;;
13933;SDS011;7039;52.168;9.866;2023-07-24T04:28:54;2.17;;;1.80;;
13933;SDS011;7039;52.168;9.866;2023-07-24T04:31:20;4.10;;;2.27;;
13933;SDS011;7039;52.168;9.866;2023-07-24T04:33:47;5.00;;;2.20;;
13933;SDS011;7039;52.168;9.866;2023-07-24T04:36:15;2.40;;;2.17;;
13933;SDS011;7039;52.168;9.866;2023-07-24T04:38:41;2.50;;;2.23;;
13933;SDS011;7039;52.168;9.866;2023-07-24T04:41:07;2.30;;;2.10;;
13933;SDS011;7039;52.168;9.866;2023-07-24T04:43:34;2.93;;;2.00;;
13933;SDS011;7039;52.168;9.866;2023-07-24T04:46:00;2.27;;;1.70;;
13933;SDS011;7039;52.168;9.866;2023-07-24T04:48:27;5.77;;;2.87;;
13933;SDS011;7039;52.168;9.866;2023-07-24T04:50:54;2.03;;;1.80;;
13933;SDS011;7039;52.168;9.866;2023-07-24T04:53:23;2.60;;;2.10;;
13933;SDS011;7039;52.168;9.866;2023-07-24T04:55:49;4.40;;;1.97;;
13933;SDS011;7039;52.168;9.866;2023-07-24T04:58:16;3.97;;;2.17;;
13933;SDS011;7039;52.168;9.866;2023-07-24T05:00:42;2.20;;;1.93;;
13933;SDS011;7039;52.168;9.866;2023-07-24T05:03:09;3.20;;;2.00;;
13933;SDS011;7039;52.168;9.866;2023-07-24T05:05:36;7.40;;;2.73;;
13933;SDS011;7039;52.168;9.866;2023-07-24T05:08:03;3.23;;;1.90;;
13933;SDS011;7039;52.168;9.866;2023-07-24T05:10:34;2.57;;;1.80;;
13933;SDS011;7039;52.168;9.866;2023-07-24T05:13:00;3.33;;;1.93;;
13933;SDS011;7039;52.168;9.866;2023-07-24T05:15:27;3.53;;;1.70;;
13933;SDS011;7039;52.168;9.866;2023-07-24T05:17:53;2.20;;;1.90;;
13933;SDS011;7039;52.168;9.866;2023-07-24T05:20:20;2.40;;;2.07;;
13933;SDS011;7039;52.168;9.866;2023-07-24T05:22:46;2.10;;;1.90;;
13933;SDS011;7039;52.168;9.866;2023-07-24T05:25:13;3.40;;;2.20;;
13933;SDS011;7039;52.168;9.866;2023-07-24T05:27:41;3.30;;;2.07;;
13933;SDS011;7039;52.168;9.866;2023-07-24T05:30:07;2.30;;;2.10;;
13933;SDS011;7039;52.168;9.866;2023-07-24T05:32:34;3.40;;;2.40;;
13933;SDS011;7039;52.168;9.866;2023-07-24T05:35:00;5.33;;;2.00;;
13933;SDS011;7039;52.168;9.866;2023-07-24T05:37:27;2.93;;;2.20;;
13933;SDS011;7039;52.168;9.866;2023-07-24T05:39:53;4.33;;;2.20;;
13933;SDS011;7039;52.168;9.866;2023-07-24T05:42:20;2.50;;;2.30;;
13933;SDS011;7039;52.168;9.866;2023-07-24T05:44:47;4.50;;;2.00;;
13933;SDS011;7039;52.168;9.866;2023-07-24T05:47:14;5.63;;;2.50;;
13933;SDS011;7039;52.168;9.866;2023-07-24T05:49:40;5.87;;;2.70;;
13933;SDS011;7039;52.168;9.866;2023-07-24T05:52:07;2.70;;;2.30;;
13933;SDS011;7039;52.168;9.866;2023-07-24T05:54:33;7.93;;;2.50;;
13933;SDS011;7039;52.168;9.866;2023-07-24T05:57:00;3.37;;;2.60;;
13933;SDS011;7039;52.168;9.866;2023-07-24T05:59:26;3.47;;;2.60;;
13933;SDS011;7039;52.168;9.866;2023-07-24T06:01:54;5.67;;;2.40;;
13933;SDS011;7039;52.168;9.866;2023-07-24T06:04:20;4.00;;;2.60;;
13933;SDS011;7039;52.168;9.866;2023-07-24T06:06:47;5.03;;;2.50;;
13933;SDS011;7039;52.168;9.866;2023-07-24T06:09:13;5.03;;;2.53;;
13933;SDS011;7039;52.168;9.866;2023-07-24T06:11:40;4.43;;;2.83;;
13933;SDS011;7039;52.168;9.866;2023-07-24T06:14:06;2.60;;;2.40;;
13933;SDS011;7039;52.168;9.866;2023-07-24T06:16:32;2.90;;;2.40;;
13933;SDS011;7039;52.168;9.866;2023-07-24T06:19:00;4.13;;;2.70;;
13933;SDS011;7039;52.168;9.866;2023-07-24T06:21:27;4.23;;;2.43;;
13933;SDS011;7039;52.168;9.866;2023-07-24T06:23:53;4.00;;;2.50;;
13933;SDS011;7039;52.168;9.866;2023-07-24T06:26:19;3.40;;;2.47;;
13933;SDS011;7039;52.168;9.866;2023-07-24T06:28:46;2.60;;;2.27;;
13933;SDS011;7039;52.168;9.866;2023-07-24T06:31:12;4.33;;;2.70;;
13933;SDS011;7039;52.168;9.866;2023-07-24T06:33:39;3.83;;;2.60;;
13933;SDS011;7039;52.168;9.866;2023-07-24T06:36:09;3.57;;;2.67;;
13933;SDS011;7039;52.168;9.866;2023-07-24T06:38:36;3.23;;;2.60;;
13933;SDS011;7039;52.168;9.866;2023-07-24T06:41:02;4.17;;;2.50;;
13933;SDS011;7039;52.168;9.866;2023-07-24T06:43:29;4.03;;;2.57;;
13933;SDS011;7039;52.168;9.866;2023-07-24T06:45:55;4.17;;;2.63;;
13933;SDS011;7039;52.168;9.866;2023-07-24T06:48:22;3.13;;;2.30;;
13933;SDS011;7039;52.168;9.866;2023-07-24T06:50:48;2.80;;;2.33;;
13933;SDS011;7039;52.168;9.866;2023-07-24T06:53:16;4.73;;;2.97;;
13933;SDS011;7039;52.168;9.866;2023-07-24T06:55:42;6.20;;;2.73;;
13933;SDS011;7039;52.168;9.866;2023-07-24T06:58:09;3.20;;;2.30;;
13933;SDS011;7039;52.168;9.866;2023-07-24T07:00:35;4.10;;;2.80;;
13933;SDS011;7039;52.168;9.866;2023-07-24T07:03:02;4.07;;;2.60;;
13933;SDS011;7039;52.168;9.866;2023-07-24T07:05:28;2.40;;;2.13;;
13933;SDS011;7039;52.168;9.866;2023-07-24T07:07:55;3.53;;;2.73;;
13933;SDS011;7039;52.168;9.866;2023-07-24T07:10:22;3.23;;;2.67;;
13933;SDS011;7039;52.168;9.866;2023-07-24T07:12:49;3.17;;;2.60;;
13933;SDS011;7039;52.168;9.866;2023-07-24T07:15:16;3.87;;;2.63;;
13933;SDS011;7039;52.168;9.866;2023-07-24T07:17:41;8.13;;;2.73;;
13933;SDS011;7039;52.168;9.866;2023-07-24T07:20:08;4.00;;;3.00;;
13933;SDS011;7039;52.168;9.866;2023-07-24T07:22:35;2.93;;;2.50;;
13933;SDS011;7039;52.168;9.866;2023-07-24T07:25:01;4.50;;;2.20;;
13933;SDS011;7039;52.168;9.866;2023-07-24T07:27:29;4.57;;;2.83;;
13933;SDS011;7039;52.168;9.866;2023-07-24T07:29:55;4.33;;;2.80;;
13933;SDS011;7039;52.168;9.866;2023-07-24T07:32:22;6.40;;;2.60;;
13933;SDS011;7039;52.168;9.866;2023-07-24T07:34:48;4.73;;;2.47;;
13933;SDS011;7039;52.168;9.866;2023-07-24T07:37:15;3.57;;;2.40;;
13933;SDS011;7039;52.168;9.866;2023-07-24T07:39:41;6.70;;;2.70;;
13933;SDS011;7039;52.168;9.866;2023-07-24T07:42:08;7.40;;;2.97;;
13933;SDS011;7039;52.168;9.866;2023-07-24T07:44:35;10.10;;;2.57;;
13933;SDS011;7039;52.168;9.866;2023-07-24T07:47:02;7.87;;;3.63;;
13933;SDS011;7039;52.168;9.866;2023-07-24T07:49:29;9.67;;;3.07;;
13933;SDS011;7039;52.168;9.866;2023-07-24T07:51:55;4.27;;;2.90;;
13933;SDS011;7039;52.168;9.866;2023-07-24T07:54:22;3.70;;;2.37;;
13933;SDS011;7039;52.168;9.866;2023-07-24T07:56:48;5.93;;;3.20;;
13933;SDS011;7039;52.168;9.866;2023-07-24T07:59:15;5.10;;;2.73;;
13933;SDS011;7039;52.168;9.866;2023-07-24T08:01:42;4.20;;;2.60;;
13933;SDS011;7039;52.168;9.866;2023-07-24T08:04:10;5.03;;;3.30;;
13933;SDS011;7039;52.168;9.866;2023-07-24T08:06:37;5.47;;;3.40;;
13933;SDS011;7039;52.168;9.866;2023-07-24T08:09:03;4.93;;;3.00;;
13933;SDS011;7039;52.168;9.866;2023-07-24T08:11:30;4.47;;;3.03;;
13933;SDS011;7039;52.168;9.866;2023-07-24T08:13:56;5.17;;;2.80;;
13933;SDS011;7039;52.168;9.866;2023-07-24T08:16:22;3.73;;;2.80;;
13933;SDS011;7039;52.168;9.866;2023-07-24T08:18:50;4.50;;;3.33;;
13933;SDS011;7039;52.168;9.866;2023-07-24T08:21:17;4.40;;;2.97;;
13933;SDS011;7039;52.168;9.866;2023-07-24T08:23:43;3.40;;;2.67;;
13933;SDS011;7039;52.168;9.866;2023-07-24T08:26:10;4.80;;;2.47;;
13933;SDS011;7039;52.168;9.866;2023-07-24T08:28:36;5.37;;;2.80;;
13933;SDS011;7039;52.168;9.866;2023-07-24T08:31:07;4.03;;;2.30;;
13933;SDS011;7039;52.168;9.866;2023-07-24T08:33:33;6.43;;;2.60;;
13933;SDS011;7039;52.168;9.866;2023-07-24T08:36:02;3.73;;;1.83;;
13933;SDS011;7039;52.168;9.866;2023-07-24T08:38:30;4.83;;;3.17;;
13933;SDS011;7039;52.168;9.866;2023-07-24T08:41:00;2.57;;;1.93;;
13933;SDS011;7039;52.168;9.866;2023-07-24T08:43:28;3.40;;;2.27;;
13933;SDS011;7039;52.168;9.866;2023-07-24T08:45:55;7.43;;;2.43;;
13933;SDS011;7039;52.168;9.866;2023-07-24T08:48:23;2.57;;;2.10;;
13933;SDS011;7039;52.168;9.866;2023-07-24T08:50:50;2.83;;;2.17;;
13933;SDS011;7039;52.168;9.866;2023-07-24T08:53:20;2.63;;;2.30;;
13933;SDS011;7039;52.168;9.866;2023-07-24T08:55:47;5.37;;;2.57;;
13933;SDS011;7039;52.168;9.866;2023-07-24T08:58:14;7.07;;;2.50;;
13933;SDS011;7039;52.168;9.866;2023-07-24T09:00:41;4.80;;;2.97;;
13933;SDS011;7039;52.168;9.866;2023-07-24T09:03:07;2.43;;;2.23;;
13933;SDS011;7039;52.168;9.866;2023-07-24T09:05:34;3.77;;;2.63;;
13933;SDS011;7039;52.168;9.866;2023-07-24T09:08:00;4.20;;;2.90;;
13933;SDS011;7039;52.168;9.866;2023-07-24T09:10:28;3.63;;;2.57;;
13933;SDS011;7039;52.168;9.866;2023-07-24T09:12:54;3.60;;;2.50;;
13933;SDS011;7039;52.168;9.866;2023-07-24T09:15:21;4.43;;;2.90;;
13933;SDS011;7039;52.168;9.866;2023-07-24T09:17:48;4.90;;;2.97;;
13933;SDS011;7039;52.168;9.866;2023-07-24T09:20:15;6.00;;;2.80;;
13933;SDS011;7039;52.168;9.866;2023-07-24T09:22:47;3.77;;;2.57;;
13933;SDS011;7039;52.168;9.866;2023-07-24T09:25:15;4.10;;;2.77;;
13933;SDS011;7039;52.168;9.866;2023-07-24T09:27:43;3.00;;;2.50;;
13933;SDS011;7039;52.168;9.866;2023-07-24T09:30:11;3.83;;;2.90;;
13933;SDS011;7039;52.168;9.866;2023-07-24T09:32:39;4.93;;;2.90;;
13933;SDS011;7039;52.168;9.866;2023-07-24T09:35:15;5.07;;;2.60;;
13933;SDS011;7039;52.168;9.866;2023-07-24T09:37:42;3.37;;;2.57;;
13933;SDS011;7039;52.168;9.866;2023-07-24T09:40:09;4.53;;;2.27;;
13933;SDS011;7039;52.168;9.866;2023-07-24T09:42:37;3.17;;;2.30;;
13933;SDS011;7039;52.168;9.866;2023-07-24T09:45:07;2.93;;;2.60;;
13933;SDS011;7039;52.168;9.866;2023-07-24T09:47:34;3.93;;;3.00;;
13933;SDS011;7039;52.168;9.866;2023-07-24T09:50:02;3.33;;;2.70;;
13933;SDS011;7039;52.168;9.866;2023-07-24T09:52:30;3.30;;;2.73;;
13933;SDS011;7039;52.168;9.866;2023-07-24T09:54:59;2.80;;;2.10;;
13933;SDS011;7039;52.168;9.866;2023-07-24T09:57:30;7.20;;;2.00;;
13933;SDS011;7039;52.168;9.866;2023-07-24T09:59:59;3.93;;;2.10;;
13933;SDS011;7039;52.168;9.866;2023-07-24T10:02:28;2.93;;;2.37;;
13933;SDS011;7039;52.168;9.866;2023-07-24T10:04:55;3.37;;;2.07;;
13933;SDS011;7039;52.168;9.866;2023-07-24T10:07:22;4.37;;;2.03;;
13933;SDS011;7039;52.168;9.866;2023-07-24T10:09:48;3.17;;;2.20;;
13933;SDS011;7039;52.168;9.866;2023-07-24T10:12:16;3.07;;;2.27;;
13933;SDS011;7039;52.168;9.866;2023-07-24T10:14:43;3.23;;;2.47;;
13933;SDS011;7039;52.168;9.866;2023-07-24T10:17:11;3.20;;;2.50;;
13933;SDS011;7039;52.168;9.866;2023-07-24T10:19:40;4.60;;;2.90;;
13933;SDS011;7039;52.168;9.866;2023-07-24T10:22:08;2.87;;;2.40;;
13933;SDS011;7039;52.168;9.866;2023-07-24T10:24:35;3.40;;;2.65;;
13933;SDS011;7039;52.168;9.866;2023-07-24T10:27:02;3.50;;;2.70;;
13933;SDS011;7039;52.168;9.866;2023-07-24T10:29:33;3.53;;;2.97;;
13933;SDS011;7039;52.168;9.866;2023-07-24T10:32:00;4.82;;;3.00;;
13933;SDS011;7039;52.168;9.866;2023-07-24T10:34:35;4.28;;;2.78;;
13933;SDS011;7039;52.168;9.866;2023-07-24T10:37:06;3.35;;;2.45;;
13933;SDS011;7039;52.168;9.866;2023-07-24T10:39:37;4.10;;;2.95;;
13933;SDS011;7039;52.168;9.866;2023-07-24T10:42:04;5.60;;;2.97;;
13933;SDS011;7039;52.168;9.866;2023-07-24T10:44:32;4.15;;;3.08;;
13933;SDS011;7039;52.168;9.866;2023-07-24T10:46:58;3.78;;;3.22;;
13933;SDS011;7039;52.168;9.866;2023-07-24T10:49:25;3.92;;;3.53;;
13933;SDS011;7039;52.168;9.866;2023-07-24T10:51:54;3.60;;;2.72;;
13933;SDS011;7039;52.168;9.866;2023-07-24T10:54:22;9.20;;;3.45;;
13933;SDS011;7039;52.168;9.866;2023-07-24T10:56:49;6.10;;;3.65;;
13933;SDS011;7039;52.168;9.866;2023-07-24T10:59:15;4.45;;;4.03;;
13933;SDS011;7039;52.168;9.866;2023-07-24T11:01:42;10.27;;;3.60;;
13933;SDS011;7039;52.168;9.866;2023-07-24T11:04:08;4.15;;;3.67;;
13933;SDS011;7039;52.168;9.866;2023-07-24T11:06:37;5.05;;;3.22;;
13933;SDS011;7039;52.168;9.866;2023-07-24T11:09:03;4.13;;;3.35;;
13933;SDS011;7039;52.168;9.866;2023-07-24T11:11:32;3.42;;;2.92;;
13933;SDS011;7039;52.168;9.866;2023-07-24T11:14:00;6.05;;;3.33;;
13933;SDS011;7039;52.168;9.866;2023-07-24T11:16:27;4.00;;;3.20;;
13933;SDS011;7039;52.168;9.866;2023-07-24T11:18:55;3.22;;;2.92;;
13933;SDS011;7039;52.168;9.866;2023-07-24T11:21:22;5.72;;;3.95;;
13933;SDS011;7039;52.168;9.866;2023-07-24T11:23:50;5.60;;;3.10;;
13933;SDS011;7039;52.168;9.866;2023-07-24T11:26:18;4.32;;;3.30;;
13933;SDS011;7039;52.168;9.866;2023-07-24T11:28:46;4.32;;;3.70;;
13933;SDS011;7039;52.168;9.866;2023-07-24T11:31:12;4.40;;;3.70;;
13933;SDS011;7039;52.168;9.866;2023-07-24T11:33:40;5.93;;;3.72;;
13933;SDS011;7039;52.168;9.866;2023-07-24T11:36:07;5.55;;;3.20;;
13933;SDS011;7039;52.168;9.866;2023-07-24T11:38:34;4.10;;;3.33;;
13933;SDS011;7039;52.168;9.866;2023-07-24T11:41:03;3.40;;;3.10;;
13933;SDS011;7039;52.168;9.866;2023-07-24T11:43:29;3.78;;;3.40;;
13933;SDS011;7039;52.168;9.866;2023-07-24T11:45:57;5.28;;;3.60;;
13933;SDS011;7039;52.168;9.866;2023-07-24T11:48:24;6.72;;;3.53;;
13933;SDS011;7039;52.168;9.866;2023-07-24T11:50:51;3.92;;;3.53;;
13933;SDS011;7039;52.168;9.866;2023-07-24T11:53:20;6.82;;;3.72;;
13933;SDS011;7039;52.168;9.866;2023-07-24T11:55:48;5.05;;;3.33;;
13933;SDS011;7039;52.168;9.866;2023-07-24T11:58:15;4.93;;;3.30;;
13933;SDS011;7039;52.168;9.866;2023-07-24T12:00:43;3.25;;;2.90;;
13933;SDS011;7039;52.168;9.866;2023-07-24T12:03:11;3.95;;;3.55;;
13933;SDS011;7039;52.168;9.866;2023-07-24T12:05:38;3.92;;;3.10;;
13933;SDS011;7039;52.168;9.866;2023-07-24T12:08:04;3.78;;;3.05;;
13933;SDS011;7039;52.168;9.866;2023-07-24T12:10:31;5.25;;;2.92;;
13933;SDS011;7039;52.168;9.866;2023-07-24T12:12:58;3.45;;;3.15;;
13933;SDS011;7039;52.168;9.866;2023-07-24T12:15:25;3.47;;;3.17;;
13933;SDS011;7039;52.168;9.866;2023-07-24T12:17:52;3.78;;;2.85;;
13933;SDS011;7039;52.168;9.866;2023-07-24T12:20:20;3.70;;;3.25;;
13933;SDS011;7039;52.168;9.866;2023-07-24T12:22:46;3.40;;;3.00;;
13933;SDS011;7039;52.168;9.866;2023-07-24T12:25:13;3.80;;;3.28;;
13933;SDS011;7039;52.168;9.866;2023-07-24T12:27:40;4.82;;;3.53;;
13933;SDS011;7039;52.168;9.866;2023-07-24T12:30:07;6.82;;;5.78;;
13933;SDS011;7039;52.168;9.866;2023-07-24T12:32:34;6.57;;;4.43;;
13933;SDS011;7039;52.168;9.866;2023-07-24T12:35:00;4.88;;;3.95;;
13933;SDS011;7039;52.168;9.866;2023-07-24T12:37:28;5.05;;;3.85;;
13933;SDS011;7039;52.168;9.866;2023-07-24T12:39:54;4.65;;;4.25;;
13933;SDS011;7039;52.168;9.866;2023-07-24T12:42:21;7.35;;;4.80;;
13933;SDS011;7039;52.168;9.866;2023-07-24T12:44:48;6.88;;;4.88;;
13933;SDS011;7039;52.168;9.866;2023-07-24T12:47:15;5.45;;;4.35;;
13933;SDS011;7039;52.168;9.866;2023-07-24T12:49:41;4.80;;;4.30;;
13933;SDS011;7039;52.168;9.866;2023-07-24T12:52:08;7.53;;;4.35;;
13933;SDS011;7039;52.168;9.866;2023-07-24T12:54:35;4.60;;;4.20;;
13933;SDS011;7039;52.168;9.866;2023-07-24T12:57:02;4.88;;;4.30;;
13933;SDS011;7039;52.168;9.866;2023-07-24T12:59:31;4.03;;;3.63;;
13933;SDS011;7039;52.168;9.866;2023-07-24T13:01:58;7.17;;;4.20;;
13933;SDS011;7039;52.168;9.866;2023-07-24T13:04:24;5.28;;;4.15;;
13933;SDS011;7039;52.168;9.866;2023-07-24T13:06:51;4.88;;;4.10;;
13933;SDS011;7039;52.168;9.866;2023-07-24T13:09:17;5.50;;;4.60;;
13933;SDS011;7039;52.168;9.866;2023-07-24T13:11:45;6.38;;;4.10;;
13933;SDS011;7039;52.168;9.866;2023-07-24T13:14:13;5.50;;;4.45;;
13933;SDS011;7039;52.168;9.866;2023-07-24T13:16:40;5.18;;;3.63;;
13933;SDS011;7039;52.168;9.866;2023-07-24T13:19:06;5.65;;;3.80;;
13933;SDS011;7039;52.168;9.866;2023-07-24T13:21:33;4.20;;;3.80;;
13933;SDS011;7039;52.168;9.866;2023-07-24T13:23:59;4.20;;;3.80;;
13933;SDS011;7039;52.168;9.866;2023-07-24T13:26:26;4.38;;;3.60;;
13933;SDS011;7039;52.168;9.866;2023-07-24T13:28:53;3.72;;;3.17;;
13933;SDS011;7039;52.168;9.866;2023-07-24T13:31:20;4.47;;;3.70;;
13933;SDS011;7039;52.168;9.866;2023-07-24T13:33:47;3.83;;;3.53;;
13933;SDS011;7039;52.168;9.866;2023-07-24T13:36:14;4.88;;;3.58;;
13933;SDS011;7039;52.168;9.866;2023-07-24T13:38:40;7.20;;;4.03;;
13933;SDS011;7039;52.168;9.866;2023-07-24T13:41:07;5.38;;;3.80;;
13933;SDS011;7039;52.168;9.866;2023-07-24T13:43:34;3.95;;;3.55;;
13933;SDS011;7039;52.168;9.866;2023-07-24T13:46:02;5.25;;;3.95;;
13933;SDS011;7039;52.168;9.866;2023-07-24T13:48:29;4.53;;;3.97;;
13933;SDS011;7039;52.168;9.866;2023-07-24T13:50:55;4.80;;;4.30;;
13933;SDS011;7039;52.168;9.866;2023-07-24T13:53:22;4.90;;;4.00;;
13933;SDS011;7039;52.168;9.866;2023-07-24T13:55:49;4.72;;;4.07;;
13933;SDS011;7039;52.168;9.866;2023-07-24T13:58:16;5.90;;;4.28;;
13933;SDS011;7039;52.168;9.866;2023-07-24T14:00:42;5.43;;;4.15;;
13933;SDS011;7039;52.168;9.866;2023-07-24T14:03:10;6.75;;;4.50;;
13933;SDS011;7039;52.168;9.866;2023-07-24T14:05:37;5.93;;;4.43;;
13933;SDS011;7039;52.168;9.866;2023-07-24T14:08:04;5.43;;;4.93;;
13933;SDS011;7039;52.168;9.866;2023-07-24T14:10:31;4.47;;;4.07;;
13933;SDS011;7039;52.168;9.866;2023-07-24T14:12:57;7.15;;;5.45;;
13933;SDS011;7039;52.168;9.866;2023-07-24T14:15:24;6.22;;;4.80;;
13933;SDS011;7039;52.168;9.866;2023-07-24T14:17:53;4.87;;;4.40;;
13933;SDS011;7039;52.168;9.866;2023-07-24T14:20:21;3.83;;;3.53;;
13933;SDS011;7039;52.168;9.866;2023-07-24T14:22:48;5.57;;;3.30;;
13933;SDS011;7039;52.168;9.866;2023-07-24T14:25:14;5.13;;;2.60;;
13933;SDS011;7039;52.168;9.866;2023-07-24T14:27:40;4.33;;;3.07;;
13933;SDS011;7039;52.168;9.866;2023-07-24T14:30:08;3.17;;;2.33;;
13933;SDS011;7039;52.168;9.866;2023-07-24T14:32:35;4.47;;;3.00;;
13933;SDS011;7039;52.168;9.866;2023-07-24T14:35:02;3.60;;;3.23;;
13933;SDS011;7039;52.168;9.866;2023-07-24T14:37:30;4.13;;;3.07;;
13933;SDS011;7039;52.168;9.866;2023-07-24T14:39:56;6.33;;;3.63;;
13933;SDS011;7039;52.168;9.866;2023-07-24T14:42:23;6.30;;;3.50;;
13933;SDS011;7039;52.168;9.866;2023-07-24T14:44:49;7.53;;;4.20;;
13933;SDS011;7039;52.168;9.866;2023-07-24T14:47:16;7.27;;;4.03;;
13933;SDS011;7039;52.168;9.866;2023-07-24T14:49:43;4.23;;;3.70;;
13933;SDS011;7039;52.168;9.866;2023-07-24T14:52:09;5.73;;;4.30;;
13933;SDS011;7039;52.168;9.866;2023-07-24T14:54:37;6.20;;;4.50;;
13933;SDS011;7039;52.168;9.866;2023-07-24T14:57:04;6.50;;;3.97;;
13933;SDS011;7039;52.168;9.866;2023-07-24T14:59:31;5.20;;;3.70;;